createdAt,value
2018-10-03T00:01:50.540Z,8.60
2018-10-03T00:04:18.743Z,7.63
2018-10-03T00:06:46.934Z,7.50
2018-10-03T00:09:15.096Z,9.23
2018-10-03T00:11:43.264Z,8.37
2018-10-03T00:14:11.609Z,8.57
2018-10-03T00:16:39.782Z,8.37
2018-10-03T00:19:08.048Z,8.27
2018-10-03T00:21:36.307Z,7.90
2018-10-03T00:24:04.426Z,8.67
2018-10-03T00:26:32.620Z,7.90
2018-10-03T00:29:00.860Z,8.20
2018-10-03T00:31:29.052Z,8.80
2018-10-03T00:33:57.253Z,7.93
2018-10-03T00:36:25.436Z,8.53
2018-10-03T00:38:53.644Z,8.07
2018-10-03T00:41:21.862Z,8.53
2018-10-03T00:43:50.041Z,8.00
2018-10-03T00:46:18.217Z,8.87
2018-10-03T00:48:46.424Z,8.50
2018-10-03T00:51:14.660Z,8.60
2018-10-03T00:53:42.849Z,8.60
2018-10-03T00:56:11.132Z,8.03
2018-10-03T00:58:39.320Z,8.50
2018-10-03T01:01:07.504Z,7.90
2018-10-03T01:03:35.684Z,8.20
2018-10-03T01:06:03.916Z,8.30
2018-10-03T01:08:32.074Z,7.53
2018-10-03T01:11:00.252Z,7.30
2018-10-03T01:13:28.436Z,6.90
2018-10-03T01:15:56.612Z,7.80
2018-10-03T01:18:24.800Z,6.73
2018-10-03T01:20:53.002Z,7.10
2018-10-03T01:23:21.176Z,7.43
2018-10-03T01:25:49.383Z,7.27
2018-10-03T01:28:17.567Z,7.27
2018-10-03T01:30:45.748Z,7.43
2018-10-03T01:33:13.943Z,8.07
2018-10-03T01:35:42.439Z,8.53
2018-10-03T01:38:10.635Z,8.33
2018-10-03T01:40:38.809Z,8.53
2018-10-03T01:43:07.132Z,9.20
2018-10-03T01:45:35.353Z,10.33
2018-10-03T01:48:03.545Z,10.00
2018-10-03T01:50:31.719Z,9.20
2018-10-03T01:52:59.905Z,9.40
2018-10-03T01:55:28.068Z,9.30
2018-10-03T01:57:56.248Z,10.87
2018-10-03T02:00:24.440Z,10.30
2018-10-03T02:02:52.609Z,10.27
2018-10-03T02:05:20.779Z,9.33
2018-10-03T02:07:48.967Z,9.17
2018-10-03T02:10:17.131Z,9.63
2018-10-03T02:12:45.316Z,11.40
2018-10-03T02:15:13.520Z,13.63
2018-10-03T02:17:41.693Z,14.13
2018-10-03T02:20:10.029Z,15.43
2018-10-03T02:22:38.224Z,17.60
2018-10-03T02:25:06.408Z,16.37
2018-10-03T02:27:34.605Z,17.47
2018-10-03T02:30:02.848Z,18.03
2018-10-03T02:32:31.068Z,17.83
2018-10-03T02:34:59.267Z,17.53
2018-10-03T02:37:27.476Z,17.80
2018-10-03T02:39:55.657Z,18.07
2018-10-03T02:42:23.835Z,17.67
2018-10-03T02:44:52.039Z,15.87
2018-10-03T02:47:20.231Z,16.63
2018-10-03T02:49:48.396Z,15.60
2018-10-03T02:52:16.596Z,14.27
2018-10-03T02:54:44.775Z,14.33
2018-10-03T02:57:12.993Z,13.63
2018-10-03T02:59:41.176Z,13.53
2018-10-03T03:02:09.696Z,14.00
2018-10-03T03:04:37.888Z,13.40
2018-10-03T03:07:06.081Z,12.83
2018-10-03T03:09:34.260Z,12.97
2018-10-03T03:12:02.466Z,13.27
2018-10-03T03:14:30.645Z,12.37
2018-10-03T03:16:58.839Z,11.77
2018-10-03T03:19:27.033Z,11.87
2018-10-03T03:21:55.189Z,12.80
2018-10-03T03:24:23.380Z,12.47
2018-10-03T03:26:51.592Z,12.17
2018-10-03T03:29:19.744Z,12.30
2018-10-03T03:31:47.942Z,12.30
2018-10-03T03:34:16.172Z,13.13
2018-10-03T03:36:44.333Z,12.73
2018-10-03T03:39:12.524Z,12.80
2018-10-03T03:41:41.740Z,13.73
2018-10-03T03:44:09.920Z,13.63
2018-10-03T03:46:38.089Z,13.60
2018-10-03T03:49:06.267Z,14.20
2018-10-03T03:51:34.441Z,12.43
2018-10-03T03:54:02.619Z,14.63
2018-10-03T03:56:30.798Z,14.03
2018-10-03T03:58:58.974Z,13.83
2018-10-03T04:01:27.140Z,14.03
2018-10-03T04:03:55.314Z,13.97
2018-10-03T04:06:23.488Z,14.77
2018-10-03T04:08:51.666Z,14.33
2018-10-03T04:11:19.889Z,15.23
2018-10-03T04:13:48.051Z,15.47
2018-10-03T04:16:16.234Z,16.03
2018-10-03T04:18:44.417Z,14.70
2018-10-03T04:21:12.597Z,15.73
2018-10-03T04:23:40.769Z,15.23
2018-10-03T04:26:08.970Z,16.20
2018-10-03T04:28:38.198Z,15.40
2018-10-03T04:31:06.373Z,15.83
2018-10-03T04:33:34.571Z,14.70
2018-10-03T04:36:02.769Z,14.63
2018-10-03T04:38:30.951Z,15.03
2018-10-03T04:40:59.180Z,14.23
2018-10-03T04:43:27.369Z,14.23
2018-10-03T04:45:55.557Z,14.03
2018-10-03T04:48:24.700Z,13.63
2018-10-03T04:50:52.876Z,14.13
2018-10-03T04:53:21.072Z,13.77
2018-10-03T04:55:49.247Z,12.97
2018-10-03T04:58:17.432Z,12.13
2018-10-03T05:00:45.612Z,11.53
2018-10-03T05:03:13.788Z,10.97
2018-10-03T05:05:41.966Z,10.43
2018-10-03T05:08:10.177Z,11.13
2018-10-03T05:10:38.349Z,10.20
2018-10-03T05:13:06.580Z,10.53
2018-10-03T05:15:34.765Z,9.53
2018-10-03T05:18:02.931Z,8.63
2018-10-03T05:20:31.113Z,8.93
2018-10-03T05:22:59.321Z,7.80
2018-10-03T05:25:27.520Z,7.67
2018-10-03T05:27:55.758Z,7.03
2018-10-03T05:30:23.900Z,7.30
2018-10-03T05:32:52.076Z,7.07
2018-10-03T05:35:20.270Z,6.23
2018-10-03T05:37:48.448Z,6.77
2018-10-03T05:40:16.646Z,5.90
2018-10-03T05:42:44.821Z,6.37
2018-10-03T05:45:13.881Z,5.57
2018-10-03T05:47:42.049Z,6.23
2018-10-03T05:50:10.234Z,6.20
2018-10-03T05:52:38.448Z,6.00
2018-10-03T05:55:10.361Z,5.43
2018-10-03T05:57:38.644Z,5.77
2018-10-03T06:00:06.852Z,5.77
2018-10-03T06:02:35.094Z,5.20
2018-10-03T06:05:03.273Z,5.20
2018-10-03T06:07:31.516Z,5.53
2018-10-03T06:09:59.696Z,6.03
2018-10-03T06:12:28.044Z,5.80
2018-10-03T06:14:56.249Z,5.40
2018-10-03T06:17:24.467Z,5.47
2018-10-03T06:19:55.895Z,5.40
2018-10-03T06:22:24.100Z,5.50
2018-10-03T06:24:55.448Z,5.07
2018-10-03T06:27:23.645Z,5.17
2018-10-03T06:29:51.968Z,5.87
2018-10-03T06:32:21.261Z,5.63
2018-10-03T06:34:51.495Z,5.73
2018-10-03T06:37:21.716Z,5.47
2018-10-03T06:39:49.912Z,5.43
2018-10-03T06:42:19.150Z,5.57
2018-10-03T06:44:53.131Z,5.50
2018-10-03T06:47:21.420Z,6.07
2018-10-03T06:49:49.628Z,5.10
2018-10-03T06:52:17.904Z,5.83
2018-10-03T06:54:46.200Z,6.20
2018-10-03T06:57:14.469Z,5.27
2018-10-03T06:59:42.745Z,5.03
2018-10-03T07:02:14.377Z,5.03
2018-10-03T07:04:44.640Z,5.50
2018-10-03T07:07:12.907Z,5.90
2018-10-03T07:09:41.202Z,4.70
2018-10-03T07:12:09.384Z,5.30
2018-10-03T07:14:37.567Z,5.20
2018-10-03T07:17:06.036Z,5.10
2018-10-03T07:19:34.221Z,4.87
2018-10-03T07:22:02.485Z,5.07
2018-10-03T07:24:30.698Z,5.10
2018-10-03T07:26:59.925Z,5.60
2018-10-03T07:29:28.142Z,5.37
2018-10-03T07:31:56.325Z,4.63
2018-10-03T07:34:24.524Z,5.43
2018-10-03T07:36:52.705Z,5.30
2018-10-03T07:39:20.885Z,5.07
2018-10-03T07:41:52.715Z,5.30
2018-10-03T07:44:20.916Z,5.27
2018-10-03T07:46:49.092Z,5.03
2018-10-03T07:49:17.259Z,5.37
2018-10-03T07:51:45.461Z,4.93
2018-10-03T07:54:13.629Z,5.60
2018-10-03T07:56:41.832Z,5.43
2018-10-03T07:59:10.104Z,5.33
2018-10-03T08:01:38.290Z,5.30
2018-10-03T08:04:06.487Z,5.23
2018-10-03T08:06:34.684Z,5.67
2018-10-03T08:09:03.025Z,5.53
2018-10-03T08:11:32.251Z,5.13
2018-10-03T08:14:00.434Z,5.40
2018-10-03T08:16:28.600Z,5.03
2018-10-03T08:18:57.856Z,4.63
2018-10-03T08:21:26.134Z,4.70
2018-10-03T08:23:55.387Z,5.07
2018-10-03T08:26:23.838Z,5.27
2018-10-03T08:28:52.027Z,5.13
2018-10-03T08:31:20.213Z,4.77
2018-10-03T08:33:48.532Z,4.80
2018-10-03T08:36:16.790Z,5.20
2018-10-03T08:38:45.069Z,4.73
2018-10-03T08:41:13.137Z,5.03
2018-10-03T08:43:41.304Z,5.03
2018-10-03T08:46:09.488Z,4.83
2018-10-03T08:48:37.880Z,4.90
2018-10-03T08:51:06.195Z,5.37
2018-10-03T08:53:34.495Z,4.67
2018-10-03T08:56:04.753Z,5.47
2018-10-03T08:58:34.103Z,5.00
2018-10-03T09:01:02.196Z,5.27
2018-10-03T09:03:30.433Z,5.20
2018-10-03T09:05:58.608Z,5.40
2018-10-03T09:08:33.613Z,4.90
2018-10-03T09:11:01.812Z,4.70
2018-10-03T09:13:34.345Z,5.30
2018-10-03T09:16:02.668Z,5.23
2018-10-03T09:18:30.929Z,4.97
2018-10-03T09:21:02.701Z,4.70
2018-10-03T09:23:30.971Z,4.27
2018-10-03T09:26:01.212Z,4.77
2018-10-03T09:28:29.475Z,4.43
2018-10-03T09:30:57.562Z,4.97
2018-10-03T09:33:25.797Z,4.80
2018-10-03T09:35:57.758Z,4.80
2018-10-03T09:38:25.936Z,5.20
2018-10-03T09:40:54.108Z,4.80
2018-10-03T09:43:22.306Z,5.43
2018-10-03T09:45:50.532Z,4.63
2018-10-03T09:48:18.708Z,4.93
2018-10-03T09:50:50.228Z,4.70
2018-10-03T09:53:18.396Z,5.53
2018-10-03T09:55:46.573Z,4.33
2018-10-03T09:58:14.816Z,4.60
2018-10-03T10:00:48.334Z,5.00
2018-10-03T10:03:16.464Z,4.53
2018-10-03T10:05:44.672Z,5.00
2018-10-03T10:08:12.865Z,4.37
2018-10-03T10:10:41.100Z,5.27
2018-10-03T10:13:09.292Z,4.97
2018-10-03T10:15:37.513Z,5.10
2018-10-03T10:18:05.947Z,4.33
2018-10-03T10:20:34.144Z,4.40
2018-10-03T10:23:02.317Z,4.93
2018-10-03T10:25:30.508Z,4.37
2018-10-03T10:27:58.768Z,4.90
2018-10-03T10:30:26.964Z,5.10
2018-10-03T10:32:55.289Z,4.63
2018-10-03T10:35:23.623Z,4.63
2018-10-03T10:37:51.905Z,4.90
2018-10-03T10:40:20.204Z,4.50
2018-10-03T10:42:48.265Z,4.53
2018-10-03T10:45:16.456Z,4.10
2018-10-03T10:47:44.681Z,4.33
2018-10-03T10:50:13.003Z,4.10
2018-10-03T10:52:41.172Z,5.27
2018-10-03T10:55:13.960Z,4.33
2018-10-03T10:57:42.184Z,4.10
2018-10-03T11:00:10.393Z,4.47
2018-10-03T11:02:38.599Z,5.20
2018-10-03T11:05:06.813Z,4.60
2018-10-03T11:07:35.547Z,4.43
2018-10-03T11:10:03.760Z,4.40
2018-10-03T11:12:31.949Z,4.33
2018-10-03T11:15:00.117Z,3.83
2018-10-03T11:17:29.393Z,5.03
2018-10-03T11:19:57.584Z,3.70
2018-10-03T11:22:25.800Z,4.00
2018-10-03T11:24:54.122Z,4.13
2018-10-03T11:27:22.164Z,4.10
2018-10-03T11:29:50.375Z,3.83
2018-10-03T11:32:19.558Z,3.70
2018-10-03T11:34:47.870Z,3.80
2018-10-03T11:37:17.111Z,4.20
2018-10-03T11:39:45.314Z,4.10
2018-10-03T11:42:13.478Z,4.10
2018-10-03T11:44:41.668Z,4.50
2018-10-03T11:47:10.023Z,4.13
2018-10-03T11:49:38.241Z,4.27
2018-10-03T11:52:06.415Z,4.30
2018-10-03T11:54:34.648Z,4.07
2018-10-03T11:57:02.905Z,4.90
2018-10-03T11:59:31.081Z,4.17
2018-10-03T12:02:02.877Z,4.53
2018-10-03T12:04:31.160Z,5.03
2018-10-03T12:06:59.384Z,4.17
2018-10-03T12:09:27.618Z,4.33
2018-10-03T12:11:55.802Z,4.27
2018-10-03T12:14:23.988Z,3.70
2018-10-03T12:16:52.221Z,4.07
2018-10-03T12:19:21.517Z,4.40
2018-10-03T12:21:49.755Z,4.40
2018-10-03T12:24:17.953Z,4.30
2018-10-03T12:26:46.133Z,4.53
2018-10-03T12:29:14.331Z,4.87
2018-10-03T12:31:42.529Z,3.67
2018-10-03T12:34:10.704Z,3.77
2018-10-03T12:36:40.100Z,4.17
2018-10-03T12:39:09.396Z,4.37
2018-10-03T12:41:38.035Z,3.83
2018-10-03T12:44:06.587Z,4.50
2018-10-03T12:46:34.797Z,4.00
2018-10-03T12:49:02.997Z,4.37
2018-10-03T12:51:31.221Z,3.80
2018-10-03T12:53:59.413Z,4.17
2018-10-03T12:56:27.612Z,4.33
2018-10-03T12:58:55.792Z,4.17
2018-10-03T13:01:24.094Z,4.20
2018-10-03T13:03:55.832Z,4.30
2018-10-03T13:06:29.477Z,3.73
2018-10-03T13:08:57.692Z,4.00
2018-10-03T13:11:26.935Z,4.70
2018-10-03T13:13:55.138Z,4.47
2018-10-03T13:16:24.348Z,4.77
2018-10-03T13:18:52.628Z,3.77
2018-10-03T13:21:20.809Z,4.77
2018-10-03T13:23:49.006Z,3.97
2018-10-03T13:26:17.197Z,3.77
2018-10-03T13:28:46.404Z,4.23
2018-10-03T13:31:14.585Z,3.80
2018-10-03T13:33:42.816Z,4.03
2018-10-03T13:36:11.001Z,4.37
2018-10-03T13:38:39.204Z,3.83
2018-10-03T13:41:11.835Z,4.23
2018-10-03T13:43:40.076Z,4.33
2018-10-03T13:46:08.297Z,4.57
2018-10-03T13:48:36.502Z,4.20
2018-10-03T13:51:04.738Z,4.60
2018-10-03T13:53:32.923Z,4.73
2018-10-03T13:56:02.198Z,4.60
2018-10-03T13:58:30.433Z,3.93
2018-10-03T14:00:58.727Z,4.47
2018-10-03T14:03:26.922Z,4.10
2018-10-03T14:05:58.359Z,4.30
2018-10-03T14:08:27.680Z,4.57
2018-10-03T14:10:55.971Z,4.30
2018-10-03T14:13:24.131Z,4.07
2018-10-03T14:15:52.316Z,4.70
2018-10-03T14:18:20.823Z,4.50
2018-10-03T14:20:48.987Z,4.73
2018-10-03T14:23:17.192Z,4.53
2018-10-03T14:25:45.394Z,4.30
2018-10-03T14:28:13.588Z,3.97
2018-10-03T14:30:41.780Z,4.30
2018-10-03T14:33:10.031Z,4.30
2018-10-03T14:35:38.218Z,4.23
2018-10-03T14:38:06.765Z,4.23
2018-10-03T14:40:34.972Z,4.37
2018-10-03T14:43:03.151Z,4.37
2018-10-03T14:45:31.332Z,4.40
2018-10-03T14:47:59.576Z,3.80
2018-10-03T14:50:27.793Z,4.60
2018-10-03T14:53:01.573Z,4.00
2018-10-03T14:55:29.753Z,4.83
2018-10-03T14:57:57.968Z,4.47
2018-10-03T15:00:26.208Z,4.10
2018-10-03T15:02:54.426Z,4.13
2018-10-03T15:05:22.637Z,4.60
2018-10-03T15:07:50.887Z,4.00
2018-10-03T15:10:19.087Z,4.53
2018-10-03T15:12:47.366Z,3.67
2018-10-03T15:15:15.510Z,3.97
2018-10-03T15:17:43.731Z,4.37
2018-10-03T15:20:11.929Z,4.13
2018-10-03T15:22:40.297Z,4.70
2018-10-03T15:25:08.508Z,5.00
2018-10-03T15:27:36.780Z,4.00
2018-10-03T15:30:05.416Z,4.30
2018-10-03T15:32:33.556Z,4.20
2018-10-03T15:35:01.748Z,4.27
2018-10-03T15:37:29.956Z,3.97
2018-10-03T15:39:58.148Z,4.00
2018-10-03T15:42:26.342Z,4.60
2018-10-03T15:44:54.528Z,4.40
2018-10-03T15:47:23.795Z,4.67
2018-10-03T15:49:51.987Z,5.23
2018-10-03T15:52:20.190Z,4.40
2018-10-03T15:54:48.736Z,4.13
2018-10-03T15:57:16.976Z,4.23
2018-10-03T15:59:45.251Z,4.70
2018-10-03T16:02:13.457Z,4.73
2018-10-03T16:04:41.637Z,4.80
2018-10-03T16:07:12.585Z,5.30
2018-10-03T16:09:40.838Z,4.50
2018-10-03T16:12:09.037Z,4.20
2018-10-03T16:14:37.243Z,3.70
2018-10-03T16:17:05.491Z,4.37
2018-10-03T16:19:33.681Z,4.37
2018-10-03T16:22:01.907Z,4.90
2018-10-03T16:24:30.117Z,4.80
2018-10-03T16:26:58.316Z,4.20
2018-10-03T16:29:26.551Z,4.83
2018-10-03T16:31:55.029Z,4.33
2018-10-03T16:34:23.271Z,4.80
2018-10-03T16:36:52.301Z,4.60
2018-10-03T16:39:20.482Z,4.27
2018-10-03T16:41:51.964Z,5.00
2018-10-03T16:44:20.189Z,5.23
2018-10-03T16:46:48.449Z,4.70
2018-10-03T16:49:16.691Z,4.50
2018-10-03T16:51:44.875Z,5.37
2018-10-03T16:54:13.309Z,4.37
2018-10-03T16:56:41.503Z,4.83
2018-10-03T16:59:10.755Z,5.03
2018-10-03T17:01:43.927Z,5.30
2018-10-03T17:04:12.128Z,4.60
2018-10-03T17:06:40.334Z,5.00
2018-10-03T17:09:08.604Z,4.93
2018-10-03T17:11:37.296Z,5.23
2018-10-03T17:14:39.987Z,4.53
2018-10-03T17:17:08.913Z,5.27
2018-10-03T17:19:37.201Z,4.90
2018-10-03T17:22:06.448Z,5.73
2018-10-03T17:24:35.924Z,5.27
2018-10-03T17:27:04.164Z,5.43
2018-10-03T17:29:32.353Z,5.77
2018-10-03T17:32:00.560Z,5.60
2018-10-03T17:34:28.770Z,5.40
2018-10-03T17:36:57.177Z,6.03
2018-10-03T17:39:26.160Z,5.50
2018-10-03T17:41:56.522Z,5.87
2018-10-03T17:44:24.971Z,5.10
2018-10-03T17:46:54.505Z,4.60
2018-10-03T17:49:22.743Z,5.07
2018-10-03T17:51:51.004Z,5.20
2018-10-03T17:54:20.200Z,5.40
2018-10-03T17:57:01.147Z,6.43
2018-10-03T17:59:29.312Z,5.50
2018-10-03T18:01:59.364Z,5.83
2018-10-03T18:04:29.677Z,5.40
2018-10-03T18:06:57.917Z,5.00
2018-10-03T18:09:26.096Z,5.43
2018-10-03T18:11:54.290Z,5.47
2018-10-03T18:14:22.494Z,4.87
2018-10-03T18:16:50.705Z,5.13
2018-10-03T18:19:18.872Z,4.83
2018-10-03T18:21:47.049Z,5.27
2018-10-03T18:24:15.245Z,5.67
2018-10-03T18:26:43.497Z,4.93
2018-10-03T18:29:11.765Z,5.30
2018-10-03T18:31:39.960Z,5.73
2018-10-03T18:34:08.143Z,5.20
2018-10-03T18:36:36.584Z,5.40
2018-10-03T18:39:06.925Z,6.30
2018-10-03T18:41:35.066Z,7.43
2018-10-03T18:44:06.476Z,8.03
2018-10-03T18:46:34.665Z,7.30
2018-10-03T18:49:02.933Z,6.57
2018-10-03T18:51:31.115Z,6.90
2018-10-03T18:53:59.303Z,6.80
2018-10-03T18:56:28.574Z,6.77
2018-10-03T18:58:56.781Z,7.00
2018-10-03T19:01:29.416Z,7.40
2018-10-03T19:03:57.588Z,7.20
2018-10-03T19:06:25.805Z,6.87
2018-10-03T19:08:53.990Z,7.00
2018-10-03T19:11:22.158Z,6.47
2018-10-03T19:13:50.458Z,6.50
2018-10-03T19:16:18.748Z,7.00
2018-10-03T19:18:46.954Z,6.53
2018-10-03T19:21:15.185Z,6.93
2018-10-03T19:23:43.399Z,6.53
2018-10-03T19:26:11.675Z,6.47
2018-10-03T19:28:39.875Z,7.30
2018-10-03T19:31:17.683Z,6.70
2018-10-03T19:33:46.037Z,6.87
2018-10-03T19:36:14.291Z,7.00
2018-10-03T19:38:42.485Z,6.70
2018-10-03T19:41:10.676Z,6.90
2018-10-03T19:43:39.145Z,7.13
2018-10-03T19:46:07.549Z,6.17
2018-10-03T19:48:35.900Z,6.90
2018-10-03T19:51:04.117Z,7.27
2018-10-03T19:53:37.264Z,6.47
2018-10-03T19:56:06.829Z,7.53
2018-10-03T19:58:40.786Z,6.83
2018-10-03T20:01:09.080Z,7.40
2018-10-03T20:03:37.269Z,7.47
2018-10-03T20:06:06.736Z,7.33
2018-10-03T20:08:34.930Z,7.33
2018-10-03T20:11:03.325Z,7.67
2018-10-03T20:13:31.517Z,7.53
2018-10-03T20:15:59.705Z,7.33
2018-10-03T20:18:27.920Z,7.67
2018-10-03T20:20:56.117Z,7.93
2018-10-03T20:23:24.286Z,7.80
2018-10-03T20:25:52.503Z,7.50
2018-10-03T20:28:20.759Z,7.67
2018-10-03T20:30:48.964Z,7.67
2018-10-03T20:33:17.241Z,7.37
2018-10-03T20:35:45.780Z,8.37
2018-10-03T20:38:13.988Z,7.80
2018-10-03T20:40:48.121Z,7.87
2018-10-03T20:43:19.185Z,7.70
2018-10-03T20:45:55.590Z,7.40
2018-10-03T20:48:24.033Z,7.27
2018-10-03T20:50:52.211Z,7.03
2018-10-03T20:53:22.485Z,7.33
2018-10-03T20:55:51.776Z,7.13
2018-10-03T20:58:19.976Z,7.50
2018-10-03T21:00:48.182Z,7.07
2018-10-03T21:03:17.297Z,6.73
2018-10-03T21:05:45.675Z,6.67
2018-10-03T21:08:13.848Z,6.70
2018-10-03T21:10:42.082Z,7.50
2018-10-03T21:13:10.260Z,7.23
2018-10-03T21:15:39.514Z,7.50
2018-10-03T21:18:07.708Z,6.83
2018-10-03T21:20:35.895Z,6.17
2018-10-03T21:23:04.074Z,6.87
2018-10-03T21:25:32.383Z,6.63
2018-10-03T21:28:00.559Z,7.40
2018-10-03T21:30:28.731Z,9.27
2018-10-03T21:32:58.992Z,7.30
2018-10-03T21:35:27.164Z,7.10
2018-10-03T21:37:55.352Z,7.03
2018-10-03T21:40:23.620Z,7.07
2018-10-03T21:42:51.801Z,6.17
2018-10-03T21:45:19.984Z,7.10
2018-10-03T21:47:48.176Z,6.30
2018-10-03T21:50:16.374Z,6.60
2018-10-03T21:52:45.692Z,6.40
2018-10-03T21:55:13.883Z,6.70
2018-10-03T21:57:42.103Z,6.73
2018-10-03T22:00:10.330Z,6.43
2018-10-03T22:02:38.937Z,7.03
2018-10-03T22:05:08.959Z,7.50
2018-10-03T22:07:37.617Z,6.93
2018-10-03T22:10:05.950Z,7.57
2018-10-03T22:12:34.202Z,6.30
2018-10-03T22:15:02.406Z,7.37
2018-10-03T22:17:34.742Z,7.60
2018-10-03T22:20:02.956Z,7.23
2018-10-03T22:22:31.230Z,7.50
2018-10-03T22:24:59.388Z,6.90
2018-10-03T22:27:27.613Z,7.57
2018-10-03T22:29:55.808Z,7.43
2018-10-03T22:32:24.058Z,7.70
2018-10-03T22:34:52.253Z,7.30
2018-10-03T22:37:20.476Z,6.50
2018-10-03T22:39:48.690Z,6.50
2018-10-03T22:42:18.976Z,7.97
2018-10-03T22:44:47.212Z,7.57
2018-10-03T22:47:15.436Z,7.27
2018-10-03T22:49:43.665Z,6.63
2018-10-03T22:52:11.876Z,6.73
2018-10-03T22:54:40.153Z,7.27
2018-10-03T22:57:08.332Z,7.53
2018-10-03T22:59:36.520Z,7.23
2018-10-03T23:02:04.737Z,6.57
2018-10-03T23:04:32.936Z,6.73
2018-10-03T23:07:01.163Z,7.13
2018-10-03T23:09:29.348Z,7.33
2018-10-03T23:11:57.538Z,7.17
2018-10-03T23:14:25.715Z,7.57
2018-10-03T23:16:53.959Z,6.97
2018-10-03T23:19:22.142Z,7.37
2018-10-03T23:21:50.315Z,6.70
2018-10-03T23:24:18.537Z,8.03
2018-10-03T23:26:46.786Z,6.57
2018-10-03T23:29:14.956Z,7.27
2018-10-03T23:31:43.141Z,6.07
2018-10-03T23:34:11.345Z,7.03
2018-10-03T23:36:39.513Z,8.37
2018-10-03T23:39:09.269Z,7.13
2018-10-03T23:41:37.757Z,6.93
2018-10-03T23:44:05.936Z,7.10
2018-10-03T23:46:34.289Z,7.50
2018-10-03T23:49:02.460Z,7.80
2018-10-03T23:51:30.640Z,7.43
2018-10-03T23:53:58.843Z,6.90
2018-10-03T23:56:27.025Z,7.60
2018-10-03T23:58:55.190Z,6.90
